Terminal Aerodrome Forecast
Issued by NWS

Home | Current Version | Previous Version | Text Only | Print | Product List | Glossary On
Versions: 1 2 3 4 5 6 7 8 9 10 11 12 13 14 15 16 17 18 19 20 21 22 23 24 25 26 27 28 29 30 31 32 33 34
000
FTUS43 KFGF 221733
TAFTVF
TAF
KTVF 221733Z 2218/2318 33012KT P6SM VCSH OVC030
     FM221900 33013KT P6SM VCSH OVC045
     FM222000 33014KT P6SM OVC035
      TEMPO 2220/2222 4SM -SHRA OVC025
     FM222200 34014KT P6SM OVC030
      TEMPO 2222/2302 4SM -SHRA OVC015
     FM230300 35009KT P6SM OVC020
     FM230500 36009KT P6SM OVC010
     FM231300 01011KT P6SM OVC020=

USA.gov is the U.S. government's official web portal to all federal, state and local government web resources and services.